Time;durP1;ratioP1;P1;durP2;ratioP2;P2;SDS_P1;SDS_P2;PMS_P1;PMS_P2;Temp;Humidity;BMP_temperature;BMP_pressure;BME280_temperature;BME280_humidity;BME280_pressure;Samples;Min_cycle;Max_cycle;Signal;HPM_P1;HPM_P2
2022/12/31 00:01:14;;;;;;;2.10;1.75;;;;;;;14.97;74.74;96751.13;4961911;28;20201;-78
2022/12/31 00:03:39;;;;;;;2.92;1.52;;;;;;;15.45;72.89;96737.84;4944241;28;20259;-77
2022/12/31 00:06:15;;;;;;;3.78;2.30;;;;;;;15.51;73.38;96743.81;4945792;28;20260;-78
2022/12/31 00:08:41;;;;;;;2.30;1.90;;;;;;;15.32;73.27;96760.34;4945476;28;20175;-77
2022/12/31 00:11:07;;;;;;;2.90;1.95;;;;;;;15.16;74.17;96766.88;4944782;28;20204;-78
2022/12/31 00:13:32;;;;;;;3.22;2.13;;;;;;;14.70;75.49;96756.97;4943135;28;20248;-78
2022/12/31 00:16:12;;;;;;;3.60;2.20;;;;;;;15.55;73.44;96779.69;4914794;28;20238;-77
2022/12/31 00:18:38;;;;;;;3.88;2.30;;;;;;;14.86;75.19;96755.75;4942660;28;20272;-79
2022/12/31 00:21:07;;;;;;;4.40;2.15;;;;;;;15.42;73.73;96772.56;4946283;28;20602;-79
2022/12/31 00:23:33;;;;;;;2.60;2.20;;;;;;;15.10;74.78;96775.88;4936582;28;20546;-78
2022/12/31 00:26:10;;;;;;;2.75;1.75;;;;;;;15.43;73.36;96774.09;4930258;28;20242;-78
2022/12/31 00:28:36;;;;;;;3.28;2.15;;;;;;;15.42;73.27;96756.81;4942395;28;20271;-77
2022/12/31 00:31:10;;;;;;;3.85;2.22;;;;;;;15.41;73.76;96757.88;4947283;28;20727;-77
2022/12/31 00:33:35;;;;;;;2.45;1.90;;;;;;;15.11;74.29;96767.75;4942747;28;20280;-79
2022/12/31 00:36:22;;;;;;;2.58;2.03;;;;;;;15.46;73.46;96794.53;4931098;28;20227;-78
2022/12/31 00:38:49;;;;;;;4.63;1.88;;;;;;;15.47;73.50;96769.06;4933874;28;20190;-78
2022/12/31 00:41:16;;;;;;;4.47;2.15;;;;;;;15.49;73.37;96770.34;4933982;28;20184;-78
2022/12/31 00:43:41;;;;;;;3.08;1.92;;;;;;;15.72;72.36;96786.25;4932725;28;20648;-78
2022/12/31 00:46:08;;;;;;;3.05;1.92;;;;;;;15.89;71.45;96770.78;4948041;28;20207;-78
2022/12/31 00:48:33;;;;;;;3.45;1.85;;;;;;;15.35;73.86;96788.66;4916054;28;20290;-78
2022/12/31 00:51:00;;;;;;;3.30;2.17;;;;;;;15.41;73.59;96799.84;4934595;28;20741;-77
2022/12/31 00:53:26;;;;;;;1.73;1.60;;;;;;;15.58;72.93;96791.47;4929000;28;20216;-78
2022/12/31 00:55:53;;;;;;;5.03;2.63;;;;;;;15.42;73.47;96801.41;4924403;28;20313;-76
2022/12/31 00:58:18;;;;;;;3.20;1.70;;;;;;;15.42;72.87;96821.59;4933381;28;20177;-79
2022/12/31 01:00:43;;;;;;;5.57;2.20;;;;;;;15.56;72.83;96806.72;4948809;28;20208;-77
2022/12/31 01:03:09;;;;;;;3.72;2.63;;;;;;;15.61;72.21;96817.13;4949601;28;20297;-77
2022/12/31 01:05:35;;;;;;;2.63;1.83;;;;;;;15.54;72.74;96828.00;4933483;28;20223;-77
2022/12/31 01:08:01;;;;;;;3.53;1.98;;;;;;;15.57;72.90;96828.47;4934141;28;20684;-77
2022/12/31 01:13:11;;;;;;;4.83;2.33;;;;;;;15.63;72.56;96835.22;4931396;28;20239;-77
2022/12/31 01:15:37;;;;;;;3.95;1.88;;;;;;;15.83;71.86;96855.16;4920410;28;20684;-78
2022/12/31 01:18:04;;;;;;;3.33;1.70;;;;;;;15.93;71.29;96848.97;4955005;28;20573;-77
2022/12/31 01:20:29;;;;;;;3.53;1.60;;;;;;;15.83;71.31;96855.16;4938401;28;20118;-78
2022/12/31 01:22:55;;;;;;;2.65;1.70;;;;;;;15.85;71.32;96861.69;4950044;28;20226;-78
2022/12/31 01:25:20;;;;;;;3.10;1.70;;;;;;;16.09;70.57;96868.66;4951786;28;20195;-77
2022/12/31 01:27:46;;;;;;;2.20;1.80;;;;;;;15.63;71.78;96867.50;4918744;28;20170;-77
2022/12/31 01:30:11;;;;;;;2.15;1.95;;;;;;;16.01;70.94;96883.25;4951477;28;20101;-78
2022/12/31 01:32:36;;;;;;;2.28;1.77;;;;;;;15.89;71.32;96875.03;4935573;28;20290;-78
2022/12/31 01:35:02;;;;;;;2.70;1.70;;;;;;;15.66;72.02;96882.69;4946503;28;20302;-78
2022/12/31 01:37:27;;;;;;;2.45;1.52;;;;;;;15.90;70.96;96880.00;4951733;28;20185;-78
2022/12/31 01:39:53;;;;;;;2.25;1.50;;;;;;;15.94;70.50;96892.53;4924559;28;20284;-76
2022/12/31 01:42:18;;;;;;;2.42;2.13;;;;;;;15.60;72.01;96894.28;4915935;28;20212;-77
2022/12/31 01:44:48;;;;;;;2.05;1.60;;;;;;;15.58;71.88;96867.56;4933214;28;20574;-78
2022/12/31 01:47:17;;;;;;;1.73;1.50;;;;;;;15.68;71.64;96890.28;4934907;28;20266;-78
2022/12/31 01:49:47;;;;;;;2.10;1.83;;;;;;;16.02;70.41;96889.25;4953488;28;20196;-79
2022/12/31 01:52:53;;;;;;;2.22;1.83;;;;;;;16.16;69.63;96903.25;4950572;28;20188;-77
2022/12/31 01:55:26;;;;;;;1.83;1.23;;;;;;;16.12;70.03;96890.97;4857332;29;20194;-78
2022/12/31 01:57:56;;;;;;;2.72;1.77;;;;;;;16.23;69.26;96901.03;4850349;29;20330;-79
2022/12/31 02:00:21;;;;;;;2.28;1.40;;;;;;;15.96;69.76;96904.31;4849864;28;20425;-77
2022/12/31 02:02:46;;;;;;;3.05;1.83;;;;;;;15.91;70.27;96909.66;4846571;29;20186;-77
2022/12/31 02:05:38;;;;;;;2.53;1.25;;;;;;;16.41;68.79;96917.03;4857862;29;20156;-78
2022/12/31 02:08:05;;;;;;;2.38;1.48;;;;;;;15.62;71.54;96888.78;4853607;29;20633;-76
2022/12/31 02:10:30;;;;;;;1.45;1.30;;;;;;;15.99;70.24;96892.44;4837537;29;20207;-76
2022/12/31 02:12:56;;;;;;;2.78;1.48;;;;;;;15.77;70.29;96893.84;4847912;29;20647;-77
2022/12/31 02:15:38;;;;;;;4.22;2.22;;;;;;;15.96;70.30;96898.28;4836814;29;20825;-77
2022/12/31 02:18:11;;;;;;;2.28;1.52;;;;;;;15.83;71.31;96908.44;4840568;29;20213;-78
2022/12/31 02:21:18;;;;;;;2.13;1.20;;;;;;;16.27;69.79;96906.47;4856751;29;20174;-77
2022/12/31 02:23:49;;;;;;;2.17;1.95;;;;;;;15.78;71.35;96903.28;4850161;29;20249;-77
2022/12/31 02:26:41;;;;;;;3.00;1.52;;;;;;;15.96;71.68;96909.56;4907267;28;20220;-77
2022/12/31 02:29:37;;;;;;;3.90;1.70;;;;;;;16.23;70.27;96908.91;4951275;28;20223;-79
2022/12/31 02:32:12;;;;;;;3.13;1.20;;;;;;;16.03;71.21;96898.72;4968244;28;20200;-77
2022/12/31 02:34:45;;;;;;;2.38;1.15;;;;;;;15.97;71.37;96905.91;4942698;28;20191;-78
2022/12/31 02:37:12;;;;;;;3.10;1.38;;;;;;;15.82;72.06;96906.88;4931913;28;20252;-77
2022/12/31 02:39:38;;;;;;;2.97;1.73;;;;;;;15.98;70.72;96917.16;4937957;28;20204;-77
2022/12/31 02:42:03;;;;;;;2.97;1.52;;;;;;;15.64;72.07;96923.38;4919190;28;20212;-77
2022/12/31 02:44:34;;;;;;;2.35;1.33;;;;;;;15.51;72.73;96914.38;4931098;28;20271;-77
2022/12/31 02:47:08;;;;;;;2.45;1.50;;;;;;;15.62;73.03;96899.25;4931059;28;20310;-76
2022/12/31 02:49:50;;;;;;;3.35;1.80;;;;;;;16.22;71.04;96893.44;4955510;28;20687;-78
2022/12/31 02:52:47;;;;;;;3.05;1.50;;;;;;;16.23;70.69;96906.28;4937664;28;20238;-77
2022/12/31 02:55:52;;;;;;;1.90;1.23;;;;;;;16.11;70.79;96903.31;4925706;28;20193;-77
2022/12/31 03:02:12;;;;;;;3.70;1.40;;;;;;;15.80;71.54;96903.78;4923368;28;20256;-77
2022/12/31 03:04:30;;;;;;;1.77;1.50;;;;;;;15.93;71.63;96888.34;4902511;28;20196;-77
2022/12/31 03:06:50;;;;;;;3.85;1.40;;;;;;;15.83;71.70;96886.66;4935846;28;20310;-77
2022/12/31 03:09:16;;;;;;;3.78;1.52;;;;;;;15.84;71.84;96883.75;4951288;28;20252;-78
2022/12/31 03:14:25;;;;;;;2.55;1.50;;;;;;;15.28;73.23;96897.59;4935543;28;20257;-76
2022/12/31 03:16:50;;;;;;;2.13;1.40;;;;;;;15.78;71.82;96895.41;4934174;28;20212;-78
2022/12/31 03:22:45;;;;;;;3.05;1.60;;;;;;;15.97;70.90;96907.72;4952968;28;20251;-77
2022/12/31 03:27:29;;;;;;;2.95;1.77;;;;;;;15.93;71.30;96896.25;4952043;28;20278;-76
2022/12/31 03:29:55;;;;;;;2.15;1.83;;;;;;;15.78;71.68;96882.28;4952423;28;20097;-77
2022/12/31 03:32:20;;;;;;;3.60;1.40;;;;;;;16.09;70.60;96890.47;4947301;28;20161;-77
2022/12/31 03:34:45;;;;;;;2.45;1.45;;;;;;;16.10;70.64;96914.88;4916689;28;20193;-76
2022/12/31 03:37:11;;;;;;;2.22;1.50;;;;;;;15.89;71.65;96893.41;4930791;28;20291;-77
2022/12/31 03:39:36;;;;;;;2.92;1.85;;;;;;;15.79;71.77;96880.44;4965491;28;20346;-77
2022/12/31 03:42:02;;;;;;;4.03;1.40;;;;;;;16.03;70.89;96902.09;4932627;28;20299;-76
2022/12/31 03:44:27;;;;;;;3.60;1.60;;;;;;;16.04;70.93;96905.50;4966339;28;20149;-76
2022/12/31 03:46:52;;;;;;;2.15;1.70;;;;;;;15.97;71.37;96907.72;4934817;28;20212;-78
2022/12/31 03:49:17;;;;;;;1.58;1.17;;;;;;;15.98;70.93;96917.16;4921763;28;20283;-77
2022/12/31 03:51:43;;;;;;;4.18;1.40;;;;;;;16.06;70.53;96906.78;4920904;28;20575;-77
2022/12/31 03:54:08;;;;;;;1.58;1.00;;;;;;;16.15;70.05;96898.28;4920912;28;20747;-76
2022/12/31 03:56:34;;;;;;;2.03;1.45;;;;;;;16.29;69.66;96922.72;4933802;28;20216;-77
2022/12/31 03:58:59;;;;;;;4.00;1.40;;;;;;;15.91;71.80;96917.53;4948813;28;20322;-77
2022/12/31 04:01:25;;;;;;;2.63;1.30;;;;;;;16.46;69.35;96924.81;4971469;28;20284;-78
2022/12/31 04:03:50;;;;;;;3.28;1.20;;;;;;;16.41;69.56;96909.91;4951652;28;20216;-77
2022/12/31 04:06:15;;;;;;;2.42;1.02;;;;;;;16.12;70.31;96919.84;4938880;28;20208;-76
2022/12/31 04:08:41;;;;;;;1.83;1.27;;;;;;;16.24;70.74;96925.44;4946417;28;20237;-77
2022/12/31 04:11:06;;;;;;;1.58;1.20;;;;;;;16.21;70.64;96913.66;4951680;28;20200;-76
2022/12/31 04:13:31;;;;;;;1.90;1.10;;;;;;;16.43;70.42;96925.41;4948274;28;20628;-77
2022/12/31 04:15:57;;;;;;;1.90;1.20;;;;;;;16.58;69.47;96916.47;4951741;28;20213;-77
2022/12/31 04:18:22;;;;;;;1.45;1.00;;;;;;;16.49;70.07;96924.25;4927601;28;20215;-75
2022/12/31 04:20:48;;;;;;;2.63;1.33;;;;;;;16.51;69.68;96908.97;4939937;28;20196;-77
2022/12/31 04:23:13;;;;;;;1.40;0.98;;;;;;;16.50;69.63;96919.78;4923770;28;20454;-77
2022/12/31 04:25:38;;;;;;;2.10;0.90;;;;;;;16.54;69.04;96907.63;4941901;28;20102;-79
2022/12/31 04:28:04;;;;;;;1.33;1.20;;;;;;;16.15;70.75;96941.06;4939161;28;20192;-77
2022/12/31 04:30:29;;;;;;;2.00;1.40;;;;;;;16.56;69.79;96940.44;4936987;28;20209;-78
2022/12/31 04:32:54;;;;;;;2.20;1.20;;;;;;;16.34;70.22;96919.25;4952957;28;20708;-76
2022/12/31 04:35:20;;;;;;;1.50;1.10;;;;;;;16.77;68.96;96924.31;4952048;28;20298;-77
2022/12/31 04:37:45;;;;;;;1.77;1.25;;;;;;;16.26;69.53;96924.09;4939803;28;20202;-77
2022/12/31 04:40:10;;;;;;;1.05;0.93;;;;;;;16.28;69.74;96916.69;4935977;28;20048;-77
2022/12/31 04:42:36;;;;;;;1.92;1.08;;;;;;;16.57;68.39;96938.56;4939199;28;20080;-78
2022/12/31 04:45:03;;;;;;;2.30;1.23;;;;;;;16.73;68.07;96933.84;4937639;28;20224;-77
2022/12/31 04:47:28;;;;;;;1.98;1.10;;;;;;;16.34;69.19;96940.28;4934130;28;20172;-77
2022/12/31 04:49:53;;;;;;;1.77;1.50;;;;;;;16.64;68.46;96947.66;4941478;28;20193;-77
2022/12/31 04:52:19;;;;;;;3.38;1.27;;;;;;;16.55;68.29;96953.84;4936546;28;20193;-77
2022/12/31 04:54:44;;;;;;;2.13;1.10;;;;;;;16.87;68.18;96950.44;4941269;28;20297;-77
2022/12/31 04:57:09;;;;;;;1.88;1.20;;;;;;;16.89;66.68;96958.81;4938038;28;20207;-78
2022/12/31 04:59:35;;;;;;;1.30;1.20;;;;;;;16.57;68.20;96955.13;4956733;28;20231;-77
2022/12/31 05:02:00;;;;;;;1.10;0.90;;;;;;;16.82;67.43;96953.91;4939195;28;20299;-77
2022/12/31 05:04:26;;;;;;;1.55;1.45;;;;;;;17.01;66.91;96951.22;4956713;28;20704;-78
2022/12/31 05:06:51;;;;;;;1.02;0.90;;;;;;;16.88;67.40;96949.38;4941031;28;20399;-76
2022/12/31 05:09:16;;;;;;;1.52;0.90;;;;;;;16.80;67.49;96966.56;4956667;28;20205;-77
2022/12/31 05:11:42;;;;;;;1.98;1.13;;;;;;;16.88;67.17;96952.00;4939954;28;20261;-76
2022/12/31 05:14:07;;;;;;;2.47;1.15;;;;;;;16.73;67.69;96953.03;4952427;28;20599;-77
2022/12/31 05:16:32;;;;;;;1.40;1.30;;;;;;;16.80;67.16;96960.53;4952809;28;20268;-78
2022/12/31 05:18:58;;;;;;;3.28;1.00;;;;;;;16.56;67.61;96977.22;4924320;28;20182;-76
2022/12/31 05:21:23;;;;;;;2.05;1.02;;;;;;;16.60;67.73;96946.66;4936789;28;20212;-77
2022/12/31 05:23:49;;;;;;;2.00;1.02;;;;;;;16.44;67.85;96969.78;4938511;28;20609;-76
2022/12/31 05:26:14;;;;;;;2.35;1.25;;;;;;;16.75;67.62;96958.00;4940786;28;20208;-77
2022/12/31 05:28:40;;;;;;;1.10;0.90;;;;;;;16.88;67.03;96956.47;4956170;28;20263;-78
2022/12/31 05:31:05;;;;;;;1.10;1.00;;;;;;;16.81;66.76;96943.69;4937718;28;20169;-78
2022/12/31 05:33:30;;;;;;;1.95;1.00;;;;;;;16.94;66.91;96963.97;4950470;28;20568;-77
2022/12/31 05:35:57;;;;;;;1.00;0.90;;;;;;;17.00;66.28;96962.84;4955249;28;20291;-78
2022/12/31 05:38:23;;;;;;;2.08;0.90;;;;;;;17.12;65.85;96946.56;4941830;28;20700;-78
2022/12/31 05:40:49;;;;;;;1.10;0.88;;;;;;;16.70;67.35;96964.09;4922969;28;20646;-77
2022/12/31 05:43:14;;;;;;;1.83;1.17;;;;;;;16.96;66.02;96964.47;4940241;28;20185;-78
2022/12/31 05:45:39;;;;;;;1.95;1.40;;;;;;;17.13;65.71;96977.06;4957743;28;20712;-77
2022/12/31 05:48:05;;;;;;;2.95;1.27;;;;;;;16.79;66.69;96972.13;4955866;28;20621;-77
2022/12/31 05:50:30;;;;;;;1.38;1.02;;;;;;;16.86;66.77;96977.78;4969679;28;20283;-78
2022/12/31 05:52:56;;;;;;;2.17;1.20;;;;;;;16.78;66.28;96981.09;4955686;28;20169;-77
2022/12/31 05:55:21;;;;;;;1.17;0.95;;;;;;;17.08;65.79;96974.53;4967618;28;20180;-78
2022/12/31 05:57:47;;;;;;;2.25;1.33;;;;;;;16.91;65.80;96980.34;4939409;28;20207;-77
2022/12/31 06:00:13;;;;;;;2.15;1.17;;;;;;;16.98;65.41;96975.50;4921293;28;20279;-77
2022/12/31 06:02:38;;;;;;;1.92;1.00;;;;;;;16.73;66.14;96984.56;4949294;28;20208;-76
2022/12/31 06:05:04;;;;;;;2.90;1.45;;;;;;;17.09;65.46;96989.25;4957946;28;20629;-78
2022/12/31 06:07:29;;;;;;;1.33;1.00;;;;;;;16.80;65.91;96984.19;4919492;28;20207;-77
2022/12/31 06:09:55;;;;;;;2.38;1.10;;;;;;;16.86;65.39;96977.78;4937728;28;20198;-77
2022/12/31 06:12:20;;;;;;;1.40;1.20;;;;;;;16.84;65.68;96980.75;4917538;28;20242;-77
2022/12/31 06:14:45;;;;;;;1.60;1.10;;;;;;;17.00;65.29;96983.88;4923327;28;20095;-77
2022/12/31 06:17:11;;;;;;;1.23;1.08;;;;;;;16.97;65.65;97002.09;4937103;28;20208;-77
2022/12/31 06:19:36;;;;;;;2.03;1.27;;;;;;;16.79;65.72;96995.78;4932372;28;20352;-77
2022/12/31 06:22:01;;;;;;;1.58;1.27;;;;;;;16.58;65.47;97006.63;4932021;28;20296;-77
2022/12/31 06:24:27;;;;;;;2.17;1.60;;;;;;;16.63;65.53;97005.78;4928287;28;20211;-78
2022/12/31 06:26:52;;;;;;;1.50;1.30;;;;;;;16.91;64.81;97000.59;4939214;28;20278;-77
2022/12/31 06:29:18;;;;;;;2.75;1.40;;;;;;;16.90;64.42;97001.69;4922534;28;20090;-77
2022/12/31 06:31:43;;;;;;;2.50;1.48;;;;;;;17.08;64.15;97006.09;4940278;28;20191;-78
2022/12/31 06:34:08;;;;;;;1.75;1.42;;;;;;;16.87;64.63;97008.28;4936728;28;20696;-78
2022/12/31 06:36:34;;;;;;;2.58;1.10;;;;;;;16.90;64.88;97015.63;4948550;28;20182;-77
2022/12/31 06:39:01;;;;;;;3.22;1.50;;;;;;;16.39;65.73;97011.13;4937182;28;20654;-77
2022/12/31 06:41:27;;;;;;;1.85;1.00;;;;;;;16.61;64.92;97010.53;4919886;28;20328;-78
2022/12/31 06:43:52;;;;;;;2.65;1.23;;;;;;;16.66;64.83;97015.72;4952461;28;20295;-76
2022/12/31 06:46:17;;;;;;;2.00;1.00;;;;;;;16.75;64.47;97023.72;4927041;28;20292;-77
2022/12/31 06:48:43;;;;;;;3.15;1.48;;;;;;;16.72;63.89;97022.44;4911973;28;20709;-77
2022/12/31 06:51:12;;;;;;;2.03;1.35;;;;;;;16.94;63.98;97042.88;4936416;28;20846;-77
2022/12/31 06:53:37;;;;;;;2.83;1.40;;;;;;;16.81;63.63;97035.69;4956931;28;20375;-77
2022/12/31 06:56:08;;;;;;;2.13;1.70;;;;;;;16.78;63.59;97050.22;4958397;28;20282;-76
2022/12/31 06:58:34;;;;;;;2.30;1.80;;;;;;;16.98;62.82;97054.41;4975925;28;20101;-77
2022/12/31 07:00:59;;;;;;;3.35;1.52;;;;;;;17.19;62.64;97038.28;4939950;28;20291;-78
2022/12/31 07:03:50;;;;;;;3.15;1.42;;;;;;;17.30;62.21;97046.75;4956370;28;20186;-78
2022/12/31 07:06:32;;;;;;;2.70;1.33;;;;;;;17.01;62.57;97035.41;4953469;28;20244;-78
2022/12/31 07:09:08;;;;;;;2.58;1.45;;;;;;;16.77;63.17;97050.50;4967124;28;20204;-77
2022/12/31 07:11:53;;;;;;;2.70;1.80;;;;;;;16.72;63.47;97043.47;4942551;28;20264;-77
2022/12/31 07:14:36;;;;;;;2.33;1.58;;;;;;;16.65;63.60;97056.97;4919492;28;20278;-77
2022/12/31 07:17:09;;;;;;;3.17;1.35;;;;;;;16.42;63.41;97050.75;4938344;28;20327;-77
2022/12/31 07:19:50;;;;;;;3.17;1.48;;;;;;;16.76;62.64;97052.38;4925459;28;20195;-78
2022/12/31 07:22:16;;;;;;;1.85;1.20;;;;;;;16.51;63.27;97056.16;4943047;28;20296;-77
2022/12/31 07:24:43;;;;;;;3.17;1.90;;;;;;;16.64;62.83;97052.81;4966943;28;20283;-78
2022/12/31 07:27:31;;;;;;;1.52;1.30;;;;;;;16.70;62.70;97069.28;4936745;28;20257;-79
2022/12/31 07:30:12;;;;;;;3.13;1.60;;;;;;;16.78;62.69;97052.84;4935455;28;20195;-77
2022/12/31 07:32:49;;;;;;;3.00;1.70;;;;;;;16.53;63.26;97061.13;4929797;28;20372;-77
2022/12/31 07:35:34;;;;;;;1.88;1.35;;;;;;;16.41;63.61;97069.44;4950934;28;20144;-76
2022/12/31 07:38:24;;;;;;;1.90;1.35;;;;;;;16.74;62.26;97062.38;4954969;28;20311;-79
2022/12/31 07:40:59;;;;;;;2.65;1.50;;;;;;;16.80;62.24;97076.22;4949144;28;20306;-78
2022/12/31 07:43:38;;;;;;;3.85;1.50;;;;;;;16.91;61.79;97067.13;4954177;28;20793;-78
2022/12/31 07:46:03;;;;;;;3.65;1.67;;;;;;;16.64;62.75;97092.22;4969581;28;20224;-78
2022/12/31 07:48:29;;;;;;;2.45;1.45;;;;;;;16.29;63.24;97077.72;4953021;28;20648;-77
2022/12/31 07:50:56;;;;;;;3.28;1.58;;;;;;;16.33;63.04;97077.94;4936033;28;20279;-78
2022/12/31 07:53:22;;;;;;;2.55;1.42;;;;;;;16.47;63.12;97078.81;4938261;28;20225;-79
2022/12/31 07:55:52;;;;;;;4.60;1.88;;;;;;;16.61;62.54;97084.91;4954902;28;20626;-78
2022/12/31 07:58:21;;;;;;;2.42;1.98;;;;;;;16.34;63.22;97088.19;4952451;28;20669;-78
2022/12/31 08:00:47;;;;;;;2.95;1.65;;;;;;;16.45;62.88;97080.94;4948592;28;20275;-77
2022/12/31 08:03:40;;;;;;;2.55;1.63;;;;;;;16.73;62.14;97091.59;4933031;28;20197;-77
2022/12/31 08:06:09;;;;;;;1.50;1.40;;;;;;;16.46;63.08;97098.28;4932709;28;20205;-78
2022/12/31 08:08:53;;;;;;;2.72;1.70;;;;;;;16.37;63.24;97115.75;4951579;28;20684;-76
2022/12/31 08:11:28;;;;;;;1.65;1.25;;;;;;;16.27;63.45;97101.66;4931848;28;20279;-77
2022/12/31 08:13:55;;;;;;;2.17;1.17;;;;;;;16.72;61.67;97111.81;4918695;28;20277;-77
2022/12/31 08:16:21;;;;;;;2.67;1.75;;;;;;;16.84;61.51;97114.84;4940077;28;20252;-77
2022/12/31 08:18:47;;;;;;;3.17;1.30;;;;;;;16.52;62.19;97106.84;4946408;28;20218;-76
2022/12/31 08:21:51;;;;;;;3.08;1.80;;;;;;;16.52;62.59;97106.84;4913854;28;20192;-77
2022/12/31 08:24:30;;;;;;;4.57;1.88;;;;;;;16.92;61.26;97116.03;4924566;28;20235;-79
2022/12/31 08:27:05;;;;;;;3.10;1.83;;;;;;;16.72;61.75;97111.81;4926654;28;20183;-77
2022/12/31 08:30:02;;;;;;;3.75;1.60;;;;;;;17.04;61.02;97112.97;4955158;28;20266;-78
2022/12/31 08:32:37;;;;;;;3.83;1.35;;;;;;;16.33;62.69;97120.00;4917548;28;20200;-77
2022/12/31 08:35:13;;;;;;;2.17;1.30;;;;;;;16.46;62.49;97104.31;4946665;28;20311;-77
2022/12/31 08:37:42;;;;;;;4.13;1.35;;;;;;;16.45;62.28;97117.72;4956305;28;20277;-78
2022/12/31 08:40:42;;;;;;;3.25;1.15;;;;;;;17.06;60.49;97117.94;4953153;28;20219;-77
2022/12/31 08:43:20;;;;;;;2.63;1.33;;;;;;;16.90;60.58;97107.66;4926636;28;20250;-76
2022/12/31 08:45:51;;;;;;;1.73;1.17;;;;;;;16.88;60.55;97124.78;4945880;28;20225;-77
2022/12/31 08:48:33;;;;;;;3.83;1.42;;;;;;;17.11;60.35;97117.88;4949859;28;20222;-77
2022/12/31 08:50:59;;;;;;;1.90;0.98;;;;;;;16.84;60.71;97114.06;4938590;28;20166;-77
2022/12/31 08:53:24;;;;;;;2.78;1.50;;;;;;;17.01;59.98;97114.31;4938875;28;20035;-78
2022/12/31 08:55:56;;;;;;;3.30;2.03;;;;;;;17.01;60.55;97130.09;4942735;28;20067;-76
2022/12/31 08:58:41;;;;;;;2.28;1.60;;;;;;;16.85;60.21;97111.13;4940392;28;20587;-77
2022/12/31 09:01:07;;;;;;;3.90;1.77;;;;;;;16.70;61.00;97113.19;4921582;28;20314;-77
2022/12/31 09:04:04;;;;;;;2.17;1.05;;;;;;;16.69;61.63;97122.13;4938254;28;20561;-77
2022/12/31 09:06:29;;;;;;;2.28;1.40;;;;;;;16.88;60.86;97130.84;4930428;28;20215;-76
2022/12/31 09:09:02;;;;;;;2.95;1.15;;;;;;;17.18;60.22;97142.72;4953995;28;20177;-77
2022/12/31 09:11:59;;;;;;;1.48;1.30;;;;;;;17.38;59.57;97138.97;4933977;28;20378;-78
2022/12/31 09:15:10;;;;;;;1.63;1.42;;;;;;;17.41;59.50;97142.91;4953443;28;20673;-77
2022/12/31 09:17:45;;;;;;;2.45;1.30;;;;;;;17.25;59.69;97155.50;4948014;28;20511;-77
2022/12/31 09:20:21;;;;;;;1.60;1.48;;;;;;;17.44;59.42;97139.66;4952674;28;20102;-76
2022/12/31 09:22:46;;;;;;;1.17;1.02;;;;;;;17.32;59.30;97145.38;4956830;28;20628;-77
2022/12/31 09:25:17;;;;;;;2.70;1.70;;;;;;;16.89;60.12;97137.66;4937914;28;20309;-75
2022/12/31 09:27:53;;;;;;;1.58;1.40;;;;;;;17.03;60.12;97135.88;4917942;28;20192;-77
2022/12/31 09:30:28;;;;;;;1.65;1.00;;;;;;;17.52;58.66;97138.25;4934837;28;20247;-77
2022/12/31 09:32:53;;;;;;;;;;;;;;;17.44;58.61;97131.00;4935575;28;20277;-77
2022/12/31 09:35:27;;;;;;;2.78;1.35;;;;;;;17.04;59.80;97140.03;4932215;28;20136;-77
2022/12/31 09:38:08;;;;;;;3.15;1.65;;;;;;;17.32;59.18;97153.28;4930527;28;20148;-76
2022/12/31 09:41:14;;;;;;;1.83;1.40;;;;;;;17.27;59.35;97148.09;4914421;28;20682;-76
2022/12/31 09:44:01;;;;;;;3.05;1.40;;;;;;;17.26;59.88;97140.53;4939127;28;20215;-77
2022/12/31 09:47:18;;;;;;;2.15;1.10;;;;;;;17.65;59.23;97136.69;4957617;28;20212;-77
2022/12/31 09:49:50;;;;;;;2.30;1.38;;;;;;;17.56;58.29;97147.09;4919709;28;20316;-77
2022/12/31 09:52:33;;;;;;;3.00;1.48;;;;;;;17.73;58.28;97142.06;4941039;28;20174;-77
2022/12/31 09:55:07;;;;;;;1.65;1.33;;;;;;;17.78;57.93;97152.50;4925501;28;20169;-76
2022/12/31 09:57:39;;;;;;;1.55;1.45;;;;;;;17.55;57.59;97158.72;4916693;28;20232;-76
2022/12/31 10:00:19;;;;;;;3.40;1.25;;;;;;;17.58;57.93;97145.75;4930792;28;20209;-77
2022/12/31 10:02:53;;;;;;;2.78;1.20;;;;;;;17.79;57.97;97150.66;4935755;28;20211;-77
2022/12/31 10:05:25;;;;;;;2.63;1.80;;;;;;;17.67;57.90;97155.63;4947356;28;20274;-77
2022/12/31 10:07:53;;;;;;;1.88;1.10;;;;;;;17.83;57.38;97158.75;4965763;28;20216;-77
2022/12/31 10:10:25;;;;;;;1.13;1.02;;;;;;;18.12;56.78;97151.38;4927191;28;20194;-76
2022/12/31 10:12:56;;;;;;;1.15;1.02;;;;;;;18.17;56.60;97152.34;4918782;28;20191;-77
2022/12/31 10:15:55;;;;;;;2.08;0.90;;;;;;;18.21;55.78;97161.22;4919317;28;20577;-77
2022/12/31 10:18:23;;;;;;;3.08;2.22;;;;;;;18.22;56.37;97158.31;4952937;28;20169;-76
2022/12/31 10:21:17;;;;;;;4.15;1.30;;;;;;;18.23;56.78;97156.44;4954924;28;20730;-77
2022/12/31 10:23:57;;;;;;;3.88;1.27;;;;;;;18.44;55.92;97151.53;4938903;28;20299;-77
2022/12/31 10:26:35;;;;;;;1.95;0.95;;;;;;;18.33;55.87;97153.59;4931090;28;20192;-77
2022/12/31 10:29:07;;;;;;;1.83;1.00;;;;;;;17.79;56.96;97151.44;4948744;28;20207;-76
2022/12/31 10:31:55;;;;;;;1.27;1.10;;;;;;;18.42;55.19;97149.22;4948197;28;20260;-77
2022/12/31 10:34:53;;;;;;;2.92;0.85;;;;;;;18.30;55.73;97156.81;4930778;28;20172;-76
2022/12/31 10:37:23;;;;;;;1.67;1.08;;;;;;;18.31;55.62;97153.13;4940459;28;20178;-77
2022/12/31 10:40:15;;;;;;;1.85;1.13;;;;;;;18.61;55.53;97161.47;4967340;28;20872;-77
2022/12/31 10:43:04;;;;;;;3.63;1.10;;;;;;;18.73;55.27;97169.66;4947075;28;20577;-77
2022/12/31 10:46:13;;;;;;;1.58;0.90;;;;;;;18.50;55.30;97174.09;4923660;28;20299;-77
2022/12/31 10:49:16;;;;;;;1.58;0.98;;;;;;;18.32;55.74;97167.88;4936379;28;20265;-76
2022/12/31 10:51:53;;;;;;;1.10;1.00;;;;;;;18.30;55.42;97170.00;4948910;28;20320;-77
2022/12/31 10:54:26;;;;;;;1.13;0.80;;;;;;;18.51;54.77;97162.47;4932983;28;20187;-77
2022/12/31 10:57:14;;;;;;;2.65;1.15;;;;;;;18.72;55.20;97157.53;4935849;28;20193;-76
2022/12/31 10:59:58;;;;;;;1.60;1.42;;;;;;;18.51;54.51;97157.19;4946374;28;20204;-77
2022/12/31 11:02:38;;;;;;;1.80;1.17;;;;;;;18.52;55.17;97156.91;4934412;28;20183;-77
2022/12/31 11:05:28;;;;;;;1.45;1.08;;;;;;;18.37;54.67;97151.16;4947137;28;20286;-77
2022/12/31 11:08:15;;;;;;;2.10;1.00;;;;;;;18.77;54.67;97151.38;4949462;28;20175;-77
2022/12/31 11:11:12;;;;;;;2.97;1.13;;;;;;;18.71;54.19;97138.28;4949363;28;20243;-77
2022/12/31 11:13:46;;;;;;;1.52;1.00;;;;;;;18.92;54.04;97152.91;4947665;28;20240;-77
2022/12/31 11:16:39;;;;;;;1.63;1.15;;;;;;;19.00;53.35;97155.59;4967377;28;20627;-77
2022/12/31 11:19:30;;;;;;;2.65;0.95;;;;;;;18.98;53.67;97154.34;4931203;28;20625;-76
2022/12/31 11:22:36;;;;;;;2.17;1.15;;;;;;;18.61;52.84;97150.91;4944631;28;20186;-77
2022/12/31 11:25:22;;;;;;;;;;;;;;;19.09;53.09;97145.13;4929748;28;20246;-77
2022/12/31 11:27:47;;;;;;;1.30;1.02;;;;;;;18.76;53.25;97142.66;4942318;28;20070;-76
2022/12/31 11:30:36;;;;;;;2.30;1.35;;;;;;;19.01;53.00;97133.44;4942168;28;20173;-76
2022/12/31 11:33:16;;;;;;;2.28;1.23;;;;;;;18.71;53.78;97129.59;4929520;28;20361;-77
2022/12/31 11:36:09;;;;;;;1.67;0.93;;;;;;;18.81;53.51;97129.34;4930586;28;20245;-75
2022/12/31 11:38:52;;;;;;;1.23;1.13;;;;;;;18.57;53.83;97118.31;4929488;28;20682;-76
2022/12/31 11:41:34;;;;;;;1.15;0.90;;;;;;;18.72;53.46;97120.59;4944210;28;20530;-75
2022/12/31 11:44:22;;;;;;;1.10;1.00;;;;;;;19.24;52.19;97125.50;4915654;28;20231;-77
2022/12/31 11:47:06;;;;;;;1.58;0.75;;;;;;;18.95;52.76;97124.06;4946907;28;20496;-77
2022/12/31 11:50:29;;;;;;;1.08;0.98;;;;;;;18.71;53.00;97121.69;4931040;28;20152;-77
2022/12/31 11:53:12;;;;;;;1.23;0.98;;;;;;;18.63;53.22;97131.09;4850439;28;20195;-76
2022/12/31 11:55:53;;;;;;;1.63;0.90;;;;;;;19.03;52.30;97125.22;4872094;28;20649;-76
2022/12/31 11:58:19;;;;;;;0.85;0.80;;;;;;;19.26;52.03;97120.69;4938984;28;20212;-78
2022/12/31 12:00:55;;;;;;;2.88;0.70;;;;;;;19.16;52.43;97120.94;4945291;28;20832;-77
2022/12/31 12:03:20;;;;;;;1.40;0.90;;;;;;;19.25;51.64;97127.06;4932919;28;20190;-76
2022/12/31 12:05:46;;;;;;;1.35;0.85;;;;;;;19.34;52.58;97129.75;4935930;28;20650;-77
2022/12/31 12:08:11;;;;;;;1.42;0.90;;;;;;;19.26;52.22;97134.69;4914427;28;20211;-76
2022/12/31 12:10:49;;;;;;;1.23;0.75;;;;;;;19.25;51.21;97143.66;4941712;28;20322;-77
2022/12/31 12:13:19;;;;;;;1.40;0.60;;;;;;;19.10;51.68;97141.41;4932015;28;20165;-77
2022/12/31 12:15:48;;;;;;;0.80;0.80;;;;;;;19.44;51.67;97145.34;4933025;28;20530;-77